Airfield :
LOGIN :

Register | Disclaimer

   EN    FR    IT 

 










Legend :    VFR   Marginal VFR   IFR   Intensive IFR   Very Intensive IFR
Visi :
Ceiling :
>= 8 km
>= 3000ft
5 to 8 km
1000 to 3000 ft
1500m to 5 km
500 to 1000 ft
800 to 1500m
200 to 500 ft
< 800m
< 200 ft
Symbols :   Thunderstorms  Fog  Heavy snow  Heavy precipitations  Wind > 20 kt
SIGMETs :     Misc.  Thunderstorms  Icing  Turbulence  Mountain Waves  Volcanic Ashes







- Airport Elevation : 1276 ft
- IATA code : STR


EDDS - Stuttgart

CURRENT METAR :
  • 111920Z 24004KT 210V270 9999 -SHSN FEW015 SCT020 BKN036 01/M01 Q1023 NOSIG

EXPIRED METARs :
  • 111850Z 24004KT 210V270 9999 SCT029 BKN042 01/M01 Q1023 NOSIG
  • 111820Z 26005KT 9999 SCT040 01/M01 Q1023 NOSIG
  • 111750Z 25005KT 9999 SCT037 01/M01 Q1023 NOSIG
  • 111720Z 25006KT 9999 FEW023 SCT039 01/M01 Q1023 NOSIG
  • 111650Z 24005KT 9999 FEW023 SCT046 02/M01 Q1022 NOSIG

TAF TAF EDDS
Valid from the 11 at 18:00 until the 12 at 18:00 UTC


111700Z 1118/1218 25005KT 9999 SCT035
PROB30
TEMPO 1118/1121 4000 -SHSN BKN012CB
BECMG 1208/1211 03004KT
No reported NOTAMs for that airfield.



MET'MAP, your aeronautical weather chart ! - Copyright ORBIFLY December 2007 - Disclaimer

ORBIFLY MET'MAP TEAM :

Programming & Development : Alexandra Zaïnal
Concept & Development : Baudouin d'Aumeries
Co-Development & Prog : Marc-Olivier Méhu
Technical & hardware support : Manuel Goepfert

Contact : metmap@orbifly.com




SOURCES & CREDITS :

   NOAA